Time;durP1;ratioP1;P1;durP2;ratioP2;P2;SDS_P1;SDS_P2;PMS_P1;PMS_P2;Temp;Humidity;BMP_temperature;BMP_pressure;BME280_temperature;BME280_humidity;BME280_pressure;Samples;Min_cycle;Max_cycle;Signal;HPM_P1;HPM_P2
2022/05/04 00:01:07;;;;;;;5.97;5.23;;;;;;;10.97;nan;99436.81;4980791;28;20214;-72
2022/05/04 00:03:35;;;;;;;6.90;6.20;;;;;;;10.92;nan;99440.69;4977469;28;20341;-72
2022/05/04 00:06:00;;;;;;;5.90;5.28;;;;;;;10.83;nan;99443.00;4973964;28;20287;-70
2022/05/04 00:08:25;;;;;;;5.73;5.23;;;;;;;10.78;nan;99437.22;4972222;28;20256;-73
2022/05/04 00:10:51;;;;;;;5.70;5.10;;;;;;;10.75;nan;99436.59;4971825;28;20250;-73
2022/05/04 00:13:16;;;;;;;7.90;5.30;;;;;;;10.73;nan;99436.69;4981852;28;20367;-70
2022/05/04 00:15:41;;;;;;;5.30;4.77;;;;;;;10.72;nan;99440.25;4975055;28;20223;-70
2022/05/04 00:18:07;;;;;;;5.00;4.50;;;;;;;10.72;nan;99434.13;4970557;28;20209;-74
2022/05/04 00:20:32;;;;;;;6.13;5.53;;;;;;;10.71;nan;99430.69;4965295;28;20555;-71
2022/05/04 00:22:58;;;;;;;5.00;4.50;;;;;;;10.68;nan;99432.69;4972288;28;20215;-71
2022/05/04 00:25:23;;;;;;;9.17;5.30;;;;;;;10.53;nan;99440.63;4967658;28;20249;-75
2022/05/04 00:27:48;;;;;;;4.97;4.47;;;;;;;10.38;nan;99442.47;4981064;28;20303;-71
2022/05/04 00:30:14;;;;;;;4.50;4.10;;;;;;;10.30;nan;99436.88;4977643;28;20297;-71
2022/05/04 00:32:39;;;;;;;6.00;5.20;;;;;;;10.24;nan;99436.41;4977445;28;20254;-71
2022/05/04 00:35:05;;;;;;;5.87;5.37;;;;;;;10.18;nan;99440.28;4976280;28;20223;-71
2022/05/04 00:37:31;;;;;;;6.40;5.20;;;;;;;10.11;nan;99431.94;4972816;28;20664;-71
2022/05/04 00:39:57;;;;;;;8.02;5.90;;;;;;;10.09;nan;99433.00;4979877;28;20484;-71
2022/05/04 00:42:23;;;;;;;7.20;4.33;;;;;;;10.11;nan;99433.75;4969068;28;20628;-71
2022/05/04 00:44:50;;;;;;;6.10;5.00;;;;;;;10.13;nan;99430.09;4972085;28;20271;-72
2022/05/04 00:47:17;;;;;;;5.57;5.03;;;;;;;10.17;nan;99438.59;4968145;28;20238;-74
2022/05/04 00:49:46;;;;;;;5.10;4.60;;;;;;;10.20;nan;99438.38;4977214;28;20239;-72
2022/05/04 00:52:13;;;;;;;5.60;5.10;;;;;;;10.20;nan;99430.50;4976725;28;20325;-71
2022/05/04 00:54:42;;;;;;;7.43;5.57;;;;;;;10.19;nan;99436.72;4982319;28;21456;-73
2022/05/04 00:57:07;;;;;;;6.18;5.07;;;;;;;10.17;nan;99434.16;4981028;28;20608;-74
2022/05/04 00:59:33;;;;;;;6.20;5.60;;;;;;;10.18;nan;99435.03;4973810;28;20207;-72
2022/05/04 01:01:59;;;;;;;6.20;5.67;;;;;;;10.16;nan;99442.16;4968989;28;20219;-71
2022/05/04 01:04:25;;;;;;;5.80;4.80;;;;;;;10.16;nan;99443.00;4982448;28;20211;-73
2022/05/04 01:06:50;;;;;;;5.40;4.90;;;;;;;10.21;nan;99447.97;4973887;28;20482;-69
2022/05/04 01:09:16;;;;;;;5.60;4.70;;;;;;;10.15;nan;99448.34;4988213;28;20216;-70
2022/05/04 01:11:42;;;;;;;6.97;5.50;;;;;;;9.97;nan;99451.22;4988354;28;20306;-69
2022/05/04 01:14:11;;;;;;;5.13;4.60;;;;;;;9.83;nan;99451.25;4983178;28;20656;-72
2022/05/04 01:16:38;;;;;;;5.53;5.03;;;;;;;9.78;nan;99442.81;4983209;28;20238;-69
2022/05/04 01:19:04;;;;;;;5.57;4.90;;;;;;;9.76;nan;99452.56;4974143;28;20291;-72
2022/05/04 01:21:30;;;;;;;5.70;5.10;;;;;;;9.71;nan;99446.75;4977832;28;20290;-70
2022/05/04 01:23:57;;;;;;;5.10;4.67;;;;;;;9.65;nan;99436.66;4979126;28;20301;-70
2022/05/04 01:26:22;;;;;;;4.70;4.30;;;;;;;9.62;nan;99448.19;4974767;28;20593;-70
2022/05/04 01:28:48;;;;;;;6.60;5.33;;;;;;;9.63;nan;99446.41;4977008;28;20219;-70
2022/05/04 01:31:13;;;;;;;5.90;5.40;;;;;;;9.68;nan;99452.19;4979336;28;20216;-69
2022/05/04 01:33:39;;;;;;;6.90;5.57;;;;;;;9.72;nan;99449.31;4970703;28;20215;-69
2022/05/04 01:36:06;;;;;;;5.57;5.07;;;;;;;9.77;nan;99450.78;4973582;28;20473;-69
2022/05/04 01:38:32;;;;;;;6.28;5.63;;;;;;;9.77;nan;99449.00;4974104;28;20208;-70
2022/05/04 01:40:58;;;;;;;11.95;5.72;;;;;;;9.76;nan;99449.94;4984960;28;20257;-73
2022/05/04 01:43:23;;;;;;;5.30;4.50;;;;;;;9.73;nan;99447.53;4981154;28;20231;-69
2022/05/04 01:45:49;;;;;;;6.03;5.37;;;;;;;9.68;nan;99447.78;4979204;28;20339;-70
2022/05/04 01:48:14;;;;;;;5.43;4.70;;;;;;;9.66;nan;99451.44;4974854;28;20195;-69
2022/05/04 01:50:39;;;;;;;4.60;4.17;;;;;;;9.61;nan;99451.72;4972956;28;20682;-73
2022/05/04 01:53:05;;;;;;;5.73;4.87;;;;;;;9.57;nan;99458.13;4977540;28;20215;-69
2022/05/04 01:55:33;;;;;;;6.10;5.10;;;;;;;9.52;nan;99460.19;4979912;28;20250;-71
2022/05/04 01:57:58;;;;;;;6.85;5.45;;;;;;;9.46;nan;99460.56;4979685;28;20207;-71
2022/05/04 02:00:24;;;;;;;6.83;6.33;;;;;;;9.38;nan;99457.56;4977516;28;20230;-74
2022/05/04 02:02:50;;;;;;;6.90;6.30;;;;;;;9.31;nan;99454.47;4964142;28;20500;-72
2022/05/04 02:05:16;;;;;;;7.60;5.73;;;;;;;9.26;nan;99452.13;4977247;28;20569;-72
2022/05/04 02:07:42;;;;;;;7.90;6.45;;;;;;;9.27;nan;99460.84;4973767;28;20259;-75
2022/05/04 02:10:09;;;;;;;6.05;5.15;;;;;;;9.26;nan;99462.63;4986009;28;20903;-72
2022/05/04 02:12:35;;;;;;;5.43;4.90;;;;;;;9.22;nan;99457.66;4975898;28;20200;-71
2022/05/04 02:15:01;;;;;;;6.65;6.03;;;;;;;9.17;nan;99462.31;4979288;28;20232;-71
2022/05/04 02:17:26;;;;;;;7.43;6.10;;;;;;;9.14;nan;99457.28;4980653;28;20254;-71
2022/05/04 02:19:52;;;;;;;5.83;5.20;;;;;;;9.07;nan;99457.66;4975222;28;20216;-71
2022/05/04 02:22:18;;;;;;;7.17;6.30;;;;;;;9.01;nan;99455.38;4969874;28;20215;-73
2022/05/04 02:24:43;;;;;;;6.20;5.60;;;;;;;8.99;nan;99462.50;4973149;28;20338;-73
2022/05/04 02:27:09;;;;;;;5.57;5.03;;;;;;;9.01;nan;99459.78;5026642;23;20313;-78
2022/05/04 02:29:34;;;;;;;4.77;4.30;;;;;;;9.04;nan;99460.41;4989846;28;20510;-77
2022/05/04 02:32:00;;;;;;;6.00;5.50;;;;;;;9.03;nan;99461.38;4998745;28;20239;-78
2022/05/04 02:34:26;;;;;;;6.32;5.72;;;;;;;9.03;nan;99464.00;4995462;28;20252;-78
2022/05/04 02:39:36;;;;;;;6.82;5.38;;;;;;;8.99;nan;99470.34;4996568;28;20738;-78
2022/05/04 02:42:01;;;;;;;6.33;5.70;;;;;;;8.96;nan;99465.28;4999871;28;20219;-78
2022/05/04 02:44:27;;;;;;;5.80;5.30;;;;;;;8.94;nan;99464.53;4998875;28;20204;-78
2022/05/04 02:46:52;;;;;;;5.73;5.20;;;;;;;8.92;nan;99466.41;5005416;28;20238;-77
2022/05/04 02:49:18;;;;;;;6.17;5.57;;;;;;;8.86;nan;99470.22;5016833;28;20388;-78
2022/05/04 02:51:44;;;;;;;6.45;4.85;;;;;;;8.81;nan;99467.03;4996213;28;20234;-78
2022/05/04 02:54:10;;;;;;;5.90;5.37;;;;;;;8.78;nan;99463.75;4995362;28;20647;-78
2022/05/04 02:56:35;;;;;;;6.70;6.10;;;;;;;8.81;nan;99467.03;4999427;28;20219;-78
2022/05/04 02:59:01;;;;;;;5.83;5.17;;;;;;;8.82;nan;99460.03;5002271;28;21033;-77
2022/05/04 03:04:10;;;;;;;6.32;5.07;;;;;;;8.69;nan;99461.66;4997532;28;20298;-78
2022/05/04 03:06:39;;;;;;;7.60;5.50;;;;;;;8.61;nan;99464.72;4996596;28;20309;-78
2022/05/04 03:09:05;;;;;;;6.03;5.50;;;;;;;8.61;nan;99460.34;5002131;28;20204;-78
2022/05/04 03:14:18;;;;;;;7.15;6.10;;;;;;;8.78;nan;99461.97;4999234;28;20479;-78
2022/05/04 03:16:44;;;;;;;6.63;5.60;;;;;;;8.84;nan;99466.84;4996251;28;20218;-78
2022/05/04 03:19:10;;;;;;;7.20;5.60;;;;;;;8.81;nan;99467.03;4998974;28;20233;-78
2022/05/04 03:21:35;;;;;;;5.60;5.10;;;;;;;8.81;nan;99467.03;4998483;28;20610;-78
2022/05/04 03:24:01;;;;;;;6.50;5.73;;;;;;;8.84;nan;99466.03;4999197;28;20607;-75
2022/05/04 03:26:27;;;;;;;7.55;6.25;;;;;;;8.87;nan;99460.59;5006267;28;20263;-75
2022/05/04 03:28:53;;;;;;;6.53;5.03;;;;;;;8.85;nan;99462.44;5008183;28;20208;-74
2022/05/04 03:31:19;;;;;;;6.87;5.97;;;;;;;8.79;nan;99461.03;5001102;28;20207;-74
2022/05/04 03:33:45;;;;;;;6.18;5.55;;;;;;;8.72;nan;99461.47;5005153;28;20298;-74
2022/05/04 03:36:11;;;;;;;7.75;5.50;;;;;;;8.65;nan;99468.88;5004163;28;20298;-75
2022/05/04 03:38:36;;;;;;;6.20;5.60;;;;;;;8.59;nan;99464.81;5003208;28;20325;-75
2022/05/04 03:41:02;;;;;;;12.97;6.40;;;;;;;8.54;nan;99456.41;5003485;28;20229;-75
2022/05/04 03:43:28;;;;;;;7.60;5.30;;;;;;;8.50;nan;99460.09;4999121;28;20210;-75
2022/05/04 03:45:54;;;;;;;6.20;5.60;;;;;;;8.43;nan;99453.56;5005195;28;20598;-75
2022/05/04 03:48:20;;;;;;;8.20;5.22;;;;;;;8.39;nan;99459.88;5001454;28;20246;-75
2022/05/04 03:50:46;;;;;;;6.47;5.82;;;;;;;8.31;nan;99467.28;4999340;28;20225;-75
2022/05/04 03:53:13;;;;;;;7.50;6.40;;;;;;;8.30;nan;99458.59;5001975;28;20211;-75
2022/05/04 03:55:38;;;;;;;8.82;5.70;;;;;;;8.34;nan;99462.72;5000567;28;20255;-75
2022/05/04 03:58:04;;;;;;;6.40;5.67;;;;;;;8.43;nan;99471.88;5000496;28;20230;-75
2022/05/04 04:00:30;;;;;;;7.50;6.80;;;;;;;8.48;nan;99469.84;5006065;28;20203;-75
2022/05/04 04:02:55;;;;;;;9.73;6.97;;;;;;;8.44;nan;99463.09;5018716;28;20275;-75
2022/05/04 04:05:22;;;;;;;9.63;8.00;;;;;;;8.41;nan;99463.25;5002743;28;20204;-75
2022/05/04 04:07:48;;;;;;;9.52;8.48;;;;;;;8.46;nan;99468.25;5004529;28;20258;-74
2022/05/04 04:10:14;;;;;;;8.27;6.90;;;;;;;8.47;nan;99462.91;5008136;28;20211;-75
2022/05/04 04:12:40;;;;;;;7.10;6.40;;;;;;;8.38;nan;99472.09;5001058;28;20775;-76
2022/05/04 04:15:06;;;;;;;7.13;6.07;;;;;;;8.30;nan;99473.47;5004953;28;20218;-76
2022/05/04 04:17:31;;;;;;;8.10;6.40;;;;;;;8.17;nan;99473.31;5001760;28;20709;-76
2022/05/04 04:22:42;;;;;;;8.07;5.82;;;;;;;8.08;nan;99484.28;5008159;28;20257;-76
2022/05/04 04:25:08;;;;;;;10.23;6.80;;;;;;;8.18;nan;99488.94;5003453;28;20208;-75
2022/05/04 04:27:34;;;;;;;8.00;6.40;;;;;;;8.28;nan;99493.63;5001769;28;20466;-76
2022/05/04 04:30:00;;;;;;;7.53;6.57;;;;;;;8.38;nan;99494.81;5002855;28;20245;-75
2022/05/04 04:32:26;;;;;;;9.50;6.27;;;;;;;8.43;nan;99487.59;5001444;28;20204;-75
2022/05/04 04:34:51;;;;;;;6.43;5.83;;;;;;;8.43;nan;99484.13;4998296;28;20464;-75
2022/05/04 04:37:17;;;;;;;9.00;6.00;;;;;;;8.45;nan;99488.31;5001995;28;20230;-75
2022/05/04 04:39:42;;;;;;;6.67;6.03;;;;;;;8.51;nan;99495.84;5003340;28;20208;-75
2022/05/04 04:42:08;;;;;;;6.60;6.00;;;;;;;8.61;nan;99491.78;5002196;28;20309;-75
2022/05/04 04:44:33;;;;;;;8.10;6.50;;;;;;;8.73;nan;99492.00;5000598;28;20611;-75
2022/05/04 04:46:59;;;;;;;8.50;7.27;;;;;;;8.79;nan;99496.88;4999734;28;20284;-75
2022/05/04 04:49:25;;;;;;;8.07;7.23;;;;;;;8.82;nan;99497.53;5002973;28;20195;-76
2022/05/04 04:51:51;;;;;;;8.77;7.60;;;;;;;8.87;nan;99494.66;5000028;28;20756;-75
2022/05/04 04:54:16;;;;;;;11.03;7.80;;;;;;;8.88;nan;99504.19;5001553;28;20455;-77
2022/05/04 04:56:42;;;;;;;9.37;8.50;;;;;;;8.90;nan;99507.56;5023735;28;20488;-75
2022/05/04 04:59:08;;;;;;;12.20;9.37;;;;;;;8.94;nan;99495.97;5005129;28;20210;-75
2022/05/04 05:01:33;;;;;;;9.67;8.70;;;;;;;9.02;nan;99498.16;5002270;28;20709;-75
2022/05/04 05:03:59;;;;;;;11.43;8.13;;;;;;;9.08;nan;99496.00;5002491;28;20455;-75
2022/05/04 05:06:25;;;;;;;11.03;9.50;;;;;;;9.18;nan;99505.94;5002373;28;20290;-75
2022/05/04 05:08:50;;;;;;;8.83;8.03;;;;;;;9.27;nan;99500.16;5003218;28;20206;-75
2022/05/04 05:11:16;;;;;;;8.53;7.07;;;;;;;9.31;nan;99496.41;5000860;28;20473;-75
2022/05/04 05:16:26;;;;;;;8.48;7.07;;;;;;;9.35;nan;99500.53;4999381;28;20258;-75
2022/05/04 05:18:51;;;;;;;8.57;6.40;;;;;;;9.43;nan;99503.53;5002202;28;20216;-75
2022/05/04 05:21:18;;;;;;;9.77;6.27;;;;;;;9.51;nan;99500.44;5003884;28;20230;-75
2022/05/04 05:23:43;;;;;;;9.95;7.57;;;;;;;9.58;nan;99500.91;5003538;28;20264;-75
2022/05/04 05:26:08;;;;;;;7.10;6.23;;;;;;;9.65;nan;99496.97;5003047;28;20246;-75
2022/05/04 05:28:34;;;;;;;6.67;5.93;;;;;;;9.72;nan;99498.28;5003141;28;20219;-75
2022/05/04 05:30:59;;;;;;;7.00;5.73;;;;;;;9.79;nan;99504.84;5003884;28;20589;-75
2022/05/04 05:33:25;;;;;;;8.20;7.40;;;;;;;9.90;nan;99499.75;5005273;28;20490;-75
2022/05/04 05:35:50;;;;;;;8.20;6.97;;;;;;;9.98;nan;99502.75;5005535;28;20226;-75
2022/05/04 05:38:16;;;;;;;8.47;5.30;;;;;;;10.07;nan;99503.09;5004593;28;20637;-75
2022/05/04 05:40:42;;;;;;;6.67;5.40;;;;;;;10.15;nan;99509.56;5003877;28;20426;-75
2022/05/04 05:43:08;;;;;;;6.33;5.73;;;;;;;10.24;nan;99513.38;5002167;28;20238;-75
2022/05/04 05:45:33;;;;;;;5.38;4.80;;;;;;;10.33;nan;99510.19;5006709;28;20247;-75
2022/05/04 05:47:59;;;;;;;7.80;5.47;;;;;;;10.39;nan;99504.53;5001632;28;20519;-75
2022/05/04 05:50:24;;;;;;;5.60;5.03;;;;;;;10.45;nan;99505.09;5003982;28;20199;-75
2022/05/04 05:52:50;;;;;;;11.80;6.17;;;;;;;10.49;nan;99511.84;5003944;28;20216;-75
2022/05/04 05:55:15;;;;;;;5.70;5.20;;;;;;;10.53;nan;99508.06;5005147;28;20214;-75
2022/05/04 05:57:41;;;;;;;7.10;5.40;;;;;;;10.59;nan;99511.13;5008371;28;20210;-75
2022/05/04 06:00:07;;;;;;;7.57;5.13;;;;;;;10.67;nan;99509.81;5006341;28;20241;-75
2022/05/04 06:02:39;;;;;;;8.23;5.65;;;;;;;10.74;nan;99514.53;5003979;28;20426;-75
2022/05/04 06:05:05;;;;;;;5.80;5.30;;;;;;;10.81;nan;99507.94;5015155;28;20209;-75
2022/05/04 06:07:30;;;;;;;6.28;5.68;;;;;;;10.89;nan;99509.22;5016129;28;20234;-75
2022/05/04 06:09:56;;;;;;;6.43;5.30;;;;;;;10.94;nan;99515.88;5025102;28;20278;-75
2022/05/04 06:12:21;;;;;;;6.93;6.33;;;;;;;10.99;nan;99515.53;5017311;28;20269;-75
2022/05/04 06:14:47;;;;;;;5.77;5.27;;;;;;;11.05;nan;99509.88;5003257;28;20215;-75
2022/05/04 06:17:12;;;;;;;5.30;4.80;;;;;;;11.11;nan;99512.09;5016480;28;20270;-76
2022/05/04 06:19:38;;;;;;;6.37;5.77;;;;;;;11.16;nan;99514.41;5009811;28;20230;-76
2022/05/04 06:22:04;;;;;;;5.07;4.67;;;;;;;11.20;nan;99514.09;5012257;28;20458;-76
2022/05/04 06:24:29;;;;;;;6.30;5.53;;;;;;;11.29;nan;99521.38;5011429;28;20214;-76
2022/05/04 06:26:54;;;;;;;6.53;5.93;;;;;;;11.41;nan;99511.78;5010824;28;20235;-76
2022/05/04 06:29:20;;;;;;;6.90;6.20;;;;;;;11.56;nan;99509.03;5016686;28;20550;-75
2022/05/04 06:34:29;;;;;;;6.53;4.70;;;;;;;11.80;nan;99509.13;5007908;28;20211;-75
2022/05/04 06:36:55;;;;;;;6.03;5.43;;;;;;;11.93;nan;99509.97;5003009;28;20277;-75
2022/05/04 06:39:20;;;;;;;7.43;4.73;;;;;;;12.05;nan;99516.19;5004438;28;20689;-75
2022/05/04 06:41:47;;;;;;;5.80;4.60;;;;;;;12.16;nan;99517.09;5002721;28;20207;-75
2022/05/04 06:44:12;;;;;;;15.00;7.00;;;;;;;12.26;nan;99519.03;5007605;28;20218;-76
2022/05/04 06:46:38;;;;;;;5.67;5.10;;;;;;;12.32;nan;99513.38;4995782;28;20223;-77
2022/05/04 06:49:04;;;;;;;7.17;6.30;;;;;;;12.39;nan;99519.84;4995112;28;20258;-76
2022/05/04 06:51:29;;;;;;;5.77;5.20;;;;;;;12.45;nan;99513.28;4999883;28;20217;-77
2022/05/04 06:53:55;;;;;;;6.70;5.10;;;;;;;12.52;nan;99519.81;5000584;28;20238;-76
2022/05/04 06:56:21;;;;;;;6.40;5.70;;;;;;;12.60;nan;99517.44;4995587;28;20230;-76
2022/05/04 06:58:47;;;;;;;5.73;4.93;;;;;;;12.67;nan;99516.06;5020158;28;20549;-77
2022/05/04 07:01:12;;;;;;;6.20;5.68;;;;;;;12.69;nan;99508.88;5017451;28;20207;-76
2022/05/04 07:03:38;;;;;;;6.83;5.10;;;;;;;12.82;nan;99521.97;4996920;28;20217;-77
2022/05/04 07:06:05;;;;;;;5.83;5.33;;;;;;;12.91;nan;99518.66;4995150;28;20325;-76
2022/05/04 07:08:31;;;;;;;7.32;6.63;;;;;;;13.01;nan;99522.28;4995727;28;20452;-77
2022/05/04 07:10:56;;;;;;;6.32;5.10;;;;;;;13.07;nan;99513.09;4997880;28;20201;-76
2022/05/04 07:13:23;;;;;;;8.67;5.70;;;;;;;13.16;nan;99522.09;4996730;28;20212;-77
2022/05/04 07:15:49;;;;;;;6.22;5.63;;;;;;;13.25;nan;99524.84;4993459;28;20231;-76
2022/05/04 07:18:14;;;;;;;10.87;6.30;;;;;;;13.28;nan;99522.03;4994492;28;20199;-76
2022/05/04 07:20:40;;;;;;;5.87;5.17;;;;;;;13.30;nan;99526.34;4988763;28;20694;-76
2022/05/04 07:23:05;;;;;;;12.80;6.50;;;;;;;13.42;nan;99523.63;4993838;28;20310;-76
2022/05/04 07:25:31;;;;;;;7.87;4.97;;;;;;;13.66;nan;99512.09;4991241;28;20183;-76
2022/05/04 07:27:56;;;;;;;6.13;5.63;;;;;;;13.89;nan;99516.44;5013346;28;20215;-76
2022/05/04 07:30:22;;;;;;;6.47;5.90;;;;;;;14.09;nan;99500.78;4991162;28;20194;-76
2022/05/04 07:32:47;;;;;;;6.17;5.20;;;;;;;14.57;nan;99508.41;4994566;28;20287;-77
2022/05/04 07:35:13;;;;;;;5.63;5.13;;;;;;;15.39;nan;99505.09;4993905;28;20286;-76
2022/05/04 07:37:49;;;;;;;5.70;5.20;;;;;;;16.27;nan;99506.28;5016811;28;20310;-76
2022/05/04 07:42:58;;;;;;;5.45;5.05;;;;;;;17.43;nan;99497.47;4993546;28;20215;-77
2022/05/04 07:45:24;;;;;;;5.30;4.53;;;;;;;17.97;nan;99492.41;4991891;28;20595;-76
2022/05/04 07:47:49;;;;;;;6.47;5.17;;;;;;;18.27;nan;99496.56;4993987;28;20337;-76
2022/05/04 07:50:15;;;;;;;5.83;5.30;;;;;;;18.54;nan;99490.38;4994214;28;20210;-77
2022/05/04 07:52:41;;;;;;;4.43;4.03;;;;;;;19.00;nan;99494.63;4993586;28;20180;-76
2022/05/04 07:55:08;;;;;;;7.97;5.10;;;;;;;19.53;nan;99495.50;4990121;28;20455;-77
2022/05/04 07:57:33;;;;;;;5.90;5.30;;;;;;;20.16;nan;99488.94;4992747;28;20845;-76
2022/05/04 08:05:32;;;;;;;6.30;5.70;;;;;;;21.61;nan;99479.50;4983732;28;20836;-76
2022/05/04 08:07:58;;;;;;;5.53;4.93;;;;;;;21.78;nan;99475.75;4989173;28;20559;-76
2022/05/04 08:10:23;;;;;;;7.43;5.57;;;;;;;21.86;nan;99478.41;4985272;28;20193;-76
2022/05/04 08:12:49;;;;;;;5.77;4.90;;;;;;;22.07;nan;99482.34;4982383;28;20316;-76
2022/05/04 08:15:14;;;;;;;5.57;5.13;;;;;;;22.37;nan;99479.84;4985700;28;20249;-76
2022/05/04 08:17:40;;;;;;;5.93;5.00;;;;;;;22.53;nan;99475.22;4986264;28;20206;-76
2022/05/04 08:20:06;;;;;;;7.03;5.87;;;;;;;22.79;nan;99482.06;4986133;28;20284;-76
2022/05/04 08:22:34;;;;;;;9.93;5.80;;;;;;;23.02;nan;99471.34;4988459;28;20198;-77
2022/05/04 08:24:59;;;;;;;7.13;5.90;;;;;;;22.93;nan;99470.56;4985587;28;20449;-76
2022/05/04 08:27:26;;;;;;;5.50;4.60;;;;;;;22.72;nan;99476.59;5022444;23;20860;-73
2022/05/04 08:29:52;;;;;;;6.40;5.80;;;;;;;22.57;nan;99480.22;5008358;28;20380;-73
2022/05/04 08:32:17;;;;;;;5.70;5.20;;;;;;;22.48;nan;99476.75;5008423;28;21232;-73
2022/05/04 08:34:42;;;;;;;6.20;5.60;;;;;;;22.56;nan;99481.25;5011045;28;20218;-73
2022/05/04 08:37:08;;;;;;;6.60;5.40;;;;;;;22.57;nan;99475.69;5008445;28;20716;-73
2022/05/04 08:39:42;;;;;;;5.87;5.27;;;;;;;22.41;nan;99476.63;4999841;28;20261;-73
2022/05/04 08:42:09;;;;;;;6.23;5.63;;;;;;;22.43;nan;99488.00;5012345;28;20519;-73
2022/05/04 08:44:34;;;;;;;7.07;6.47;;;;;;;22.24;nan;99478.56;5002007;28;20411;-73
2022/05/04 08:47:05;;;;;;;5.97;5.47;;;;;;;22.09;nan;99475.81;5002788;28;20585;-73
2022/05/04 08:49:32;;;;;;;6.33;5.30;;;;;;;21.93;nan;99483.03;5008206;28;20459;-73
2022/05/04 08:52:00;;;;;;;5.50;5.00;;;;;;;21.98;nan;99480.69;4998162;28;21012;-73
2022/05/04 08:54:25;;;;;;;5.63;4.97;;;;;;;21.82;nan;99482.44;5005926;28;20830;-73
2022/05/04 08:56:51;;;;;;;7.70;4.87;;;;;;;21.85;nan;99479.41;4999648;28;20425;-73
2022/05/04 08:59:16;;;;;;;5.37;4.87;;;;;;;22.02;nan;99477.50;4999353;28;20182;-73
2022/05/04 09:01:42;;;;;;;5.43;5.03;;;;;;;22.05;nan;99465.63;5002439;28;20419;-73
2022/05/04 09:04:08;;;;;;;9.67;5.80;;;;;;;21.91;nan;99474.38;4999032;28;20658;-73
2022/05/04 09:06:41;;;;;;;6.37;5.80;;;;;;;21.80;nan;99470.25;4999814;28;20213;-73
2022/05/04 09:09:16;;;;;;;6.50;5.37;;;;;;;21.57;nan;99464.81;5008509;28;20192;-73
2022/05/04 09:11:46;;;;;;;5.17;4.53;;;;;;;21.33;nan;99463.84;4998728;28;20903;-74
2022/05/04 09:14:20;;;;;;;7.40;5.53;;;;;;;21.54;nan;99449.13;5003448;28;20980;-73
2022/05/04 09:16:47;;;;;;;6.90;6.20;;;;;;;21.83;nan;99457.34;5013156;28;20414;-74
2022/05/04 09:19:15;;;;;;;8.60;6.07;;;;;;;21.85;nan;99455.34;5013157;28;20449;-74
2022/05/04 09:21:46;;;;;;;6.77;6.10;;;;;;;21.88;nan;99452.31;5028866;28;20445;-74
2022/05/04 09:24:15;;;;;;;8.43;6.17;;;;;;;21.73;nan;99448.72;5005022;28;20443;-74
2022/05/04 09:26:44;;;;;;;6.90;6.30;;;;;;;21.84;nan;99448.31;5008662;28;20818;-74
2022/05/04 09:29:14;;;;;;;6.60;5.90;;;;;;;21.91;nan;99443.13;5007837;28;20445;-74
2022/05/04 09:31:46;;;;;;;7.50;6.23;;;;;;;22.13;nan;99438.81;5008052;28;20438;-74
2022/05/04 09:34:15;;;;;;;8.00;6.80;;;;;;;22.26;nan;99441.78;5004728;28;20460;-74
2022/05/04 09:45:16;;;;;;;7.30;6.60;;;;;;;22.44;nan;99438.84;5007506;28;20793;-74
2022/05/04 09:47:47;;;;;;;6.30;5.70;;;;;;;22.66;nan;99437.16;4979222;28;20986;-73
2022/05/04 09:50:19;;;;;;;7.70;6.87;;;;;;;22.85;nan;99440.34;5005766;28;20445;-74
2022/05/04 09:52:50;;;;;;;9.17;7.63;;;;;;;22.85;nan;99430.47;4999777;28;20469;-74
2022/05/04 09:55:23;;;;;;;7.00;6.30;;;;;;;22.95;nan;99432.88;5017641;28;20525;-74
2022/05/04 09:57:49;;;;;;;8.23;6.70;;;;;;;22.81;nan;99431.00;5005810;28;20712;-74
2022/05/04 10:00:18;;;;;;;7.03;6.33;;;;;;;22.78;nan;99424.16;5006487;28;20996;-74
2022/05/04 10:02:48;;;;;;;7.60;6.53;;;;;;;22.60;nan;99427.16;5007804;28;20446;-73
2022/05/04 10:05:15;;;;;;;5.90;5.30;;;;;;;22.72;nan;99423.03;5013388;28;20416;-74
2022/05/04 10:07:44;;;;;;;7.83;6.33;;;;;;;22.94;nan;99424.00;5003035;28;20536;-73
2022/05/04 10:10:14;;;;;;;6.93;6.23;;;;;;;23.17;nan;99426.66;5020012;28;20399;-75
2022/05/04 10:12:43;;;;;;;6.33;5.83;;;;;;;23.24;nan;99423.25;5023013;28;20497;-74
2022/05/04 10:15:14;;;;;;;5.70;5.20;;;;;;;23.28;nan;99421.88;5004030;28;20826;-73
2022/05/04 10:17:51;;;;;;;6.67;6.00;;;;;;;23.15;nan;99422.50;5003038;28;20779;-73
2022/05/04 10:20:21;;;;;;;6.10;5.50;;;;;;;23.18;nan;99416.78;5002309;28;20425;-73
2022/05/04 10:22:52;;;;;;;5.93;5.40;;;;;;;23.29;nan;99410.13;5003711;28;20568;-74
2022/05/04 10:25:18;;;;;;;5.03;4.47;;;;;;;23.34;nan;99411.25;5007065;28;20420;-74
2022/05/04 10:27:46;;;;;;;5.67;5.13;;;;;;;23.30;nan;99411.78;5006437;28;20459;-73
2022/05/04 10:30:31;;;;;;;5.17;4.67;;;;;;;23.30;nan;99401.88;5003443;28;20635;-73
2022/05/04 10:33:18;;;;;;;5.77;4.50;;;;;;;23.53;nan;99399.13;5010135;28;20438;-73
2022/05/04 10:35:50;;;;;;;5.20;4.10;;;;;;;23.52;nan;99400.16;5002695;28;20537;-73
2022/05/04 10:38:28;;;;;;;3.90;3.60;;;;;;;23.46;nan;99402.72;5003689;28;20586;-73
2022/05/04 10:40:55;;;;;;;4.40;4.00;;;;;;;23.46;nan;99403.56;4998357;28;20446;-73
2022/05/04 10:43:41;;;;;;;3.30;2.87;;;;;;;23.58;nan;99399.41;4998552;28;20535;-73
2022/05/04 10:46:07;;;;;;;5.03;4.57;;;;;;;23.68;nan;99403.63;5001328;28;20477;-73
2022/05/04 10:48:33;;;;;;;6.43;5.80;;;;;;;23.67;nan;99405.47;5010350;28;20922;-73
2022/05/04 10:51:11;;;;;;;6.57;5.50;;;;;;;23.68;nan;99393.72;5032502;28;20404;-73
2022/05/04 10:53:42;;;;;;;5.20;4.77;;;;;;;23.73;nan;99398.56;5001728;28;20193;-73
2022/05/04 10:56:22;;;;;;;6.40;4.67;;;;;;;23.64;nan;99393.28;5006647;28;20431;-74
2022/05/04 10:58:50;;;;;;;5.63;5.13;;;;;;;23.68;nan;99387.53;5010125;28;20521;-73
2022/05/04 11:01:20;;;;;;;3.83;3.53;;;;;;;23.66;nan;99382.38;5004686;28;20438;-73
2022/05/04 11:04:11;;;;;;;4.47;4.07;;;;;;;23.40;nan;99378.31;5020850;28;20440;-74
2022/05/04 11:06:39;;;;;;;2.50;2.20;;;;;;;22.88;nan;99378.38;5011767;28;20479;-73
2022/05/04 11:09:15;;;;;;;2.87;2.67;;;;;;;22.72;nan;99377.53;5015701;28;20520;-73
2022/05/04 11:11:43;;;;;;;4.27;3.83;;;;;;;22.82;nan;99379.09;5020858;28;20973;-73
2022/05/04 11:14:10;;;;;;;3.67;3.20;;;;;;;22.85;nan;99373.41;5019121;28;20438;-74
2022/05/04 11:16:37;;;;;;;4.70;4.27;;;;;;;22.90;nan;99379.88;5005591;28;20446;-74
2022/05/04 11:19:04;;;;;;;5.67;4.73;;;;;;;22.99;nan;99369.94;5014144;28;20429;-74
2022/05/04 11:21:31;;;;;;;4.77;4.30;;;;;;;23.07;nan;99369.84;5005837;28;20769;-74
2022/05/04 11:23:59;;;;;;;3.90;3.60;;;;;;;23.16;nan;99363.34;5011654;28;20813;-74
2022/05/04 11:26:37;;;;;;;4.00;3.70;;;;;;;23.25;nan;99360.59;5007749;28;21039;-74
2022/05/04 11:29:17;;;;;;;4.30;3.90;;;;;;;23.22;nan;99356.44;5003298;28;20806;-74
2022/05/04 11:32:03;;;;;;;5.13;4.50;;;;;;;23.26;nan;99359.59;5017216;28;20440;-74
2022/05/04 11:34:31;;;;;;;5.10;4.00;;;;;;;23.30;nan;99355.50;5004827;28;20560;-74
2022/05/04 11:37:01;;;;;;;4.90;4.40;;;;;;;23.11;nan;99354.22;5013597;28;20442;-74
2022/05/04 11:39:28;;;;;;;3.83;3.53;;;;;;;23.25;nan;99352.53;5010318;28;20438;-74
2022/05/04 11:41:55;;;;;;;4.00;3.43;;;;;;;23.49;nan;99349.56;5014586;28;20417;-74
2022/05/04 11:44:23;;;;;;;4.93;4.53;;;;;;;23.57;nan;99349.47;5002533;28;20434;-74
2022/05/04 11:46:54;;;;;;;3.80;3.50;;;;;;;23.54;nan;99355.19;4999571;28;20477;-73
2022/05/04 11:49:22;;;;;;;3.87;3.50;;;;;;;23.59;nan;99346.59;4999820;28;20452;-73
2022/05/04 11:51:48;;;;;;;4.20;3.80;;;;;;;23.60;nan;99338.38;5007317;28;20430;-74
2022/05/04 11:54:13;;;;;;;4.07;3.70;;;;;;;23.56;nan;99337.06;5012804;28;20468;-74
2022/05/04 11:56:39;;;;;;;4.47;4.00;;;;;;;23.58;nan;99334.22;4999241;28;20914;-74
2022/05/04 11:59:07;;;;;;;5.27;4.80;;;;;;;23.72;nan;99322.66;5015847;28;20219;-74
2022/05/04 12:01:33;;;;;;;4.57;4.27;;;;;;;23.64;nan;99331.59;5019322;28;20191;-73
2022/05/04 12:03:58;;;;;;;4.47;4.00;;;;;;;23.51;nan;99331.44;5001905;28;20426;-74
2022/05/04 12:06:25;;;;;;;5.63;4.90;;;;;;;23.56;nan;99333.56;5003109;28;20435;-74
2022/05/04 12:08:50;;;;;;;4.40;4.03;;;;;;;23.47;nan;99338.22;5017896;28;20444;-74
2022/05/04 12:11:17;;;;;;;4.37;4.00;;;;;;;23.39;nan;99324.91;5013006;28;20447;-74
2022/05/04 12:13:43;;;;;;;4.80;4.30;;;;;;;23.32;nan;99326.69;5001714;28;20761;-74
2022/05/04 12:16:11;;;;;;;4.63;4.23;;;;;;;23.28;nan;99328.09;5002159;28;20200;-73
2022/05/04 12:18:38;;;;;;;4.00;3.70;;;;;;;23.35;nan;99323.63;5016325;28;20436;-74
2022/05/04 12:21:06;;;;;;;4.00;2.90;;;;;;;23.39;nan;99328.44;5015012;28;20688;-74
2022/05/04 12:23:32;;;;;;;4.53;3.40;;;;;;;23.29;nan;99333.25;5002023;28;20448;-74
2022/05/04 12:25:58;;;;;;;3.67;2.80;;;;;;;23.18;nan;99342.59;5006907;28;20455;-74